Time;durP1;ratioP1;P1;durP2;ratioP2;P2;SDS_P1;SDS_P2;PMS_P1;PMS_P2;Temp;Humidity;BMP_temperature;BMP_pressure;BME280_temperature;BME280_humidity;BME280_pressure;Samples;Min_cycle;Max_cycle;Signal;HPM_P1;HPM_P2
2023/07/31 00:00:04;;;;;;;;;;;14.70;99.90;;;;;;5053940;28;20434;-86
2023/07/31 00:02:30;;;;;;;;;;;14.70;99.90;;;;;;5053571;28;19913;-86
2023/07/31 00:04:56;;;;;;;;;;;14.80;99.90;;;;;;5054392;28;20336;-86
2023/07/31 00:07:22;;;;;;;;;;;14.70;99.90;;;;;;5055415;28;19963;-86
2023/07/31 00:09:47;;;;;;;;;;;14.60;99.90;;;;;;5054074;28;19936;-86
2023/07/31 00:12:13;;;;;;;;;;;14.50;99.90;;;;;;5037737;28;19999;-86
2023/07/31 00:14:38;;;;;;;;;;;14.50;99.90;;;;;;5037444;28;19916;-86
2023/07/31 00:17:04;;;;;;;;;;;14.50;99.90;;;;;;5053844;28;20367;-87
2023/07/31 00:19:30;;;;;;;;;;;14.50;99.90;;;;;;5054052;28;19915;-86
2023/07/31 00:21:55;;;;;;;;;;;14.50;99.90;;;;;;5037087;28;20509;-85
2023/07/31 00:24:21;;;;;;;;;;;14.40;99.90;;;;;;5055176;28;19924;-86
2023/07/31 00:26:46;;;;;;;;;;;14.40;99.90;;;;;;5037057;28;19909;-87
2023/07/31 00:29:12;;;;;;;;;;;14.40;99.90;;;;;;5053901;28;19915;-86
2023/07/31 00:31:37;;;;;;;;;;;14.40;99.90;;;;;;5037047;28;20652;-86
2023/07/31 00:34:03;;;;;;;;;;;14.40;99.90;;;;;;5053167;28;19916;-86
2023/07/31 00:36:28;;;;;;;;;;;14.50;99.90;;;;;;5036896;28;19909;-86
2023/07/31 00:38:54;;;;;;;;;;;14.50;99.90;;;;;;5086423;28;19987;-86
2023/07/31 00:41:20;;;;;;;;;;;14.60;99.90;;;;;;5053651;28;19912;-87
2023/07/31 00:43:45;;;;;;;;;;;14.70;99.90;;;;;;5053416;28;20280;-86
2023/07/31 00:46:11;;;;;;;;;;;14.70;99.90;;;;;;5053377;28;20003;-87
2023/07/31 00:48:37;;;;;;;;;;;14.80;99.90;;;;;;5053378;28;19931;-86
2023/07/31 00:51:02;;;;;;;;;;;14.90;99.90;;;;;;5036517;28;19970;-86
2023/07/31 00:53:28;;;;;;;;;;;14.90;99.90;;;;;;5053435;28;19958;-87
2023/07/31 00:55:54;;;;;;;;;;;15.00;99.90;;;;;;5052407;28;19920;-86
2023/07/31 00:58:19;;;;;;;;;;;14.90;99.90;;;;;;5052746;28;20284;-86
2023/07/31 01:04:13;;;;;;;;;;;15.00;99.90;;;;;;5051913;28;19978;-86
2023/07/31 01:06:51;;;;;;;;;;;14.90;99.90;;;;;;5035951;28;19909;-87
2023/07/31 01:09:27;;;;;;;;;;;14.90;99.90;;;;;;5052764;28;19908;-86
2023/07/31 01:11:54;;;;;;;;;;;14.90;99.90;;;;;;5052913;28;19908;-87
2023/07/31 01:14:20;;;;;;;;;;;14.80;99.90;;;;;;5035455;28;20409;-88
2023/07/31 01:16:45;;;;;;;;;;;14.70;99.90;;;;;;5036241;28;19995;-86
2023/07/31 01:19:14;;;;;;;;;;;14.70;99.90;;;;;;5035664;28;19913;-86
2023/07/31 01:21:48;;;;;;;;;;;14.60;99.90;;;;;;5052700;28;19915;-86
2023/07/31 01:24:30;;;;;;;;;;;14.50;99.90;;;;;;5035625;28;20003;-87
2023/07/31 01:26:57;;;;;;;;;;;14.40;99.90;;;;;;5035949;28;19913;-87
2023/07/31 01:29:30;;;;;;;;;;;14.40;99.90;;;;;;5035612;28;19909;-87
2023/07/31 01:31:56;;;;;;;;;;;14.40;99.90;;;;;;5035518;28;19912;-87
2023/07/31 01:34:22;;;;;;;;;;;14.50;99.90;;;;;;5052067;28;20375;-87
2023/07/31 01:36:48;;;;;;;;;;;14.50;99.90;;;;;;5051955;28;19909;-86
2023/07/31 01:39:15;;;;;;;;;;;14.50;99.90;;;;;;5035899;28;20382;-86
2023/07/31 01:41:41;;;;;;;;;;;14.60;99.90;;;;;;5051846;28;19923;-86
2023/07/31 01:44:06;;;;;;;;;;;14.60;99.90;;;;;;5036028;28;20345;-86
2023/07/31 01:46:32;;;;;;;;;;;14.70;99.90;;;;;;5035326;28;19916;-86
2023/07/31 01:48:57;;;;;;;;;;;14.80;99.90;;;;;;5035441;28;19912;-87
2023/07/31 01:51:23;;;;;;;;;;;14.80;99.90;;;;;;5039144;28;19909;-86
2023/07/31 01:53:48;;;;;;;;;;;14.80;99.90;;;;;;5051422;28;19909;-86
2023/07/31 01:56:14;;;;;;;;;;;14.80;99.90;;;;;;5051713;28;19916;-86
2023/07/31 01:58:40;;;;;;;;;;;14.90;99.90;;;;;;5035482;28;19938;-87
2023/07/31 02:01:06;;;;;;;;;;;14.80;99.90;;;;;;5052433;28;19954;-86
2023/07/31 02:03:33;;;;;;;;;;;14.90;99.90;;;;;;5052566;28;20414;-86
2023/07/31 02:09:27;;;;;;;;;;;14.90;99.90;;;;;;5050541;28;19930;-87
2023/07/31 02:11:53;;;;;;;;;;;15.00;99.90;;;;;;5068677;28;19912;-86
2023/07/31 02:14:18;;;;;;;;;;;15.00;99.90;;;;;;5052021;28;20314;-87
2023/07/31 02:16:44;;;;;;;;;;;15.10;99.90;;;;;;5035099;28;20501;-86
2023/07/31 02:19:10;;;;;;;;;;;15.10;99.90;;;;;;5051842;28;19955;-86
2023/07/31 02:21:35;;;;;;;;;;;15.00;99.90;;;;;;5052115;28;19913;-87
2023/07/31 02:24:01;;;;;;;;;;;15.00;99.90;;;;;;5052075;28;19908;-86
2023/07/31 02:26:35;;;;;;;;;;;15.10;99.90;;;;;;5037645;28;19913;-87
2023/07/31 02:29:02;;;;;;;;;;;15.10;99.90;;;;;;5056312;28;19909;-87
2023/07/31 02:31:27;;;;;;;;;;;15.10;99.90;;;;;;5039512;28;19953;-87
2023/07/31 02:33:53;;;;;;;;;;;15.10;99.90;;;;;;5039105;28;19912;-86
2023/07/31 02:36:19;;;;;;;;;;;15.00;99.90;;;;;;5055587;28;19913;-86
2023/07/31 02:38:44;;;;;;;;;;;15.00;99.90;;;;;;5039148;28;19916;-87
2023/07/31 02:41:10;;;;;;;;;;;15.00;99.90;;;;;;5038950;28;20390;-86
2023/07/31 02:43:35;;;;;;;;;;;14.90;99.90;;;;;;5055411;28;19946;-87
2023/07/31 02:46:01;;;;;;;;;;;14.90;99.90;;;;;;5038517;28;20776;-87
2023/07/31 02:48:26;;;;;;;;;;;14.90;99.90;;;;;;5055859;28;20007;-86
2023/07/31 02:54:27;;;;;;;;;;;14.80;99.90;;;;;;5054231;28;20299;-86
2023/07/31 02:56:52;;;;;;;;;;;14.80;99.90;;;;;;5065465;28;19908;-87
2023/07/31 02:59:18;;;;;;;;;;;14.70;99.90;;;;;;5071829;28;19915;-87
2023/07/31 03:01:44;;;;;;;;;;;14.60;99.90;;;;;;5038731;28;19938;-86
2023/07/31 03:04:10;;;;;;;;;;;14.60;99.90;;;;;;5038915;28;19924;-88
2023/07/31 03:06:36;;;;;;;;;;;14.60;99.90;;;;;;5055265;28;20390;-87
2023/07/31 03:09:01;;;;;;;;;;;14.70;99.90;;;;;;5038412;28;19915;-86
2023/07/31 03:11:27;;;;;;;;;;;14.70;99.90;;;;;;5056453;28;19920;-86
2023/07/31 03:13:53;;;;;;;;;;;14.70;99.90;;;;;;5040083;28;19936;-87
2023/07/31 03:16:19;;;;;;;;;;;14.70;99.90;;;;;;5055804;28;19908;-87
2023/07/31 03:19:22;;;;;;;;;;;14.70;99.90;;;;;;5039475;28;19915;-87
2023/07/31 03:21:47;;;;;;;;;;;14.80;99.90;;;;;;5039648;28;19967;-86
2023/07/31 03:24:35;;;;;;;;;;;14.80;99.90;;;;;;5073294;28;20382;-86
2023/07/31 03:27:00;;;;;;;;;;;14.80;99.90;;;;;;5040554;28;19930;-87
2023/07/31 03:29:29;;;;;;;;;;;14.80;99.90;;;;;;5060246;28;19915;-86
2023/07/31 03:32:14;;;;;;;;;;;14.80;99.90;;;;;;5040588;28;20478;-86
2023/07/31 03:34:40;;;;;;;;;;;14.80;99.90;;;;;;5042816;28;19913;-85
2023/07/31 03:37:09;;;;;;;;;;;14.70;99.90;;;;;;5076723;28;19912;-86
2023/07/31 03:39:35;;;;;;;;;;;14.80;99.90;;;;;;5038923;28;20470;-87
2023/07/31 03:42:00;;;;;;;;;;;14.70;99.90;;;;;;5061551;28;19955;-86
2023/07/31 03:44:28;;;;;;;;;;;14.70;99.90;;;;;;5043340;28;19908;-87
2023/07/31 03:46:54;;;;;;;;;;;14.70;99.90;;;;;;5044735;28;20003;-86
2023/07/31 03:49:19;;;;;;;;;;;14.80;99.90;;;;;;5040352;28;20707;-87
2023/07/31 03:51:45;;;;;;;;;;;14.70;99.90;;;;;;5090047;28;19908;-86
2023/07/31 03:54:13;;;;;;;;;;;14.70;99.90;;;;;;5039329;28;19960;-87
2023/07/31 03:56:41;;;;;;;;;;;14.70;99.90;;;;;;5060680;28;19912;-86
2023/07/31 03:59:07;;;;;;;;;;;14.70;99.90;;;;;;5054998;28;19913;-86
2023/07/31 04:01:33;;;;;;;;;;;14.70;99.90;;;;;;5070859;28;19912;-86
2023/07/31 04:03:58;;;;;;;;;;;14.70;99.90;;;;;;5037573;28;19919;-86
2023/07/31 04:06:24;;;;;;;;;;;14.60;99.90;;;;;;5053826;28;19917;-86
2023/07/31 04:08:49;;;;;;;;;;;14.60;99.90;;;;;;5037252;28;19908;-87
2023/07/31 04:11:15;;;;;;;;;;;14.50;99.90;;;;;;5055443;28;19994;-86
2023/07/31 04:13:40;;;;;;;;;;;14.50;99.90;;;;;;5037541;28;19991;-86
2023/07/31 04:16:06;;;;;;;;;;;14.50;99.90;;;;;;5037920;28;19908;-86
2023/07/31 04:18:32;;;;;;;;;;;14.50;99.90;;;;;;5044056;28;19920;-86
2023/07/31 04:21:02;;;;;;;;;;;14.50;99.90;;;;;;5038102;28;19913;-86
2023/07/31 04:23:27;;;;;;;;;;;14.50;99.90;;;;;;5053588;28;19952;-86
2023/07/31 04:25:53;;;;;;;;;;;14.60;99.90;;;;;;5037646;28;19927;-86
2023/07/31 04:28:19;;;;;;;;;;;14.60;99.90;;;;;;5037216;28;19911;-87
2023/07/31 04:30:44;;;;;;;;;;;14.70;99.90;;;;;;5053504;28;19916;-86
2023/07/31 04:33:10;;;;;;;;;;;14.70;99.90;;;;;;5053731;28;19909;-86
2023/07/31 04:35:35;;;;;;;;;;;14.80;99.90;;;;;;5053166;28;19916;-86
2023/07/31 04:38:01;;;;;;;;;;;14.80;99.90;;;;;;5052636;28;19909;-86
2023/07/31 04:40:27;;;;;;;;;;;14.80;99.90;;;;;;5053400;28;19928;-86
2023/07/31 04:42:52;;;;;;;;;;;14.80;99.90;;;;;;5036946;28;20046;-86
2023/07/31 04:45:18;;;;;;;;;;;14.80;99.90;;;;;;5053459;28;20388;-86
2023/07/31 04:47:43;;;;;;;;;;;14.80;99.90;;;;;;5035667;28;19977;-87
2023/07/31 04:50:09;;;;;;;;;;;14.80;99.90;;;;;;5036353;28;19915;-86
2023/07/31 04:52:35;;;;;;;;;;;14.80;99.90;;;;;;5052889;28;19991;-86
2023/07/31 04:55:00;;;;;;;;;;;14.80;99.90;;;;;;5036326;28;19991;-86
2023/07/31 04:57:26;;;;;;;;;;;14.80;99.90;;;;;;5053439;28;19916;-87
2023/07/31 04:59:51;;;;;;;;;;;14.90;99.90;;;;;;5052600;28;19935;-86
2023/07/31 05:02:17;;;;;;;;;;;14.90;99.90;;;;;;5035708;28;20003;-87
2023/07/31 05:04:42;;;;;;;;;;;14.80;99.90;;;;;;5086289;28;20383;-86
2023/07/31 05:07:08;;;;;;;;;;;14.80;99.90;;;;;;5035960;28;19905;-87
2023/07/31 05:09:34;;;;;;;;;;;14.80;99.90;;;;;;5052798;28;20018;-85
2023/07/31 05:11:59;;;;;;;;;;;14.80;99.90;;;;;;5036630;28;19995;-86
2023/07/31 05:14:25;;;;;;;;;;;14.90;99.90;;;;;;5052895;28;19999;-86
2023/07/31 05:16:53;;;;;;;;;;;14.90;99.90;;;;;;5053840;28;19909;-86
2023/07/31 05:19:19;;;;;;;;;;;14.90;99.90;;;;;;5052707;28;19904;-88
2023/07/31 05:21:44;;;;;;;;;;;14.90;99.90;;;;;;5035919;28;19935;-87
2023/07/31 05:24:10;;;;;;;;;;;14.90;99.90;;;;;;5036137;28;19913;-87
2023/07/31 05:26:37;;;;;;;;;;;15.00;99.90;;;;;;5035969;28;19912;-85
2023/07/31 05:29:03;;;;;;;;;;;15.00;99.90;;;;;;5035882;28;19909;-86
2023/07/31 05:31:29;;;;;;;;;;;15.10;99.90;;;;;;5035354;28;19908;-86
2023/07/31 05:33:54;;;;;;;;;;;15.20;99.90;;;;;;5052211;28;20379;-86
2023/07/31 05:36:20;;;;;;;;;;;15.20;99.90;;;;;;5035690;28;19908;-86
2023/07/31 05:38:45;;;;;;;;;;;15.30;99.90;;;;;;5085894;28;19999;-86
2023/07/31 05:41:11;;;;;;;;;;;15.30;99.90;;;;;;5035326;28;19913;-86
2023/07/31 05:43:37;;;;;;;;;;;15.30;99.90;;;;;;5043024;28;19909;-87
2023/07/31 05:46:03;;;;;;;;;;;15.40;99.90;;;;;;5044960;28;19943;-86
2023/07/31 05:48:28;;;;;;;;;;;15.30;99.90;;;;;;5080375;28;19999;-87
2023/07/31 05:50:54;;;;;;;;;;;15.30;99.90;;;;;;5051090;28;19962;-86
2023/07/31 05:53:19;;;;;;;;;;;15.30;99.90;;;;;;5035123;28;19966;-86
2023/07/31 05:55:45;;;;;;;;;;;15.30;99.90;;;;;;5035153;28;19905;-86
2023/07/31 05:58:11;;;;;;;;;;;15.20;99.90;;;;;;5034344;28;19912;-86
2023/07/31 06:00:36;;;;;;;;;;;15.20;99.90;;;;;;5045215;28;20440;-86
2023/07/31 06:03:02;;;;;;;;;;;15.20;99.90;;;;;;5034973;28;19916;-86
2023/07/31 06:05:29;;;;;;;;;;;15.30;99.90;;;;;;5080203;28;20284;-85
2023/07/31 06:07:55;;;;;;;;;;;15.40;99.90;;;;;;5051410;28;19916;-87
2023/07/31 06:10:21;;;;;;;;;;;15.60;99.90;;;;;;5035288;28;20407;-86
2023/07/31 06:12:47;;;;;;;;;;;15.70;99.90;;;;;;5061194;28;19913;-86
2023/07/31 06:15:12;;;;;;;;;;;15.80;99.90;;;;;;5051319;28;19908;-86
2023/07/31 06:17:38;;;;;;;;;;;15.90;99.90;;;;;;5041791;28;19917;-86
2023/07/31 06:20:06;;;;;;;;;;;16.10;99.90;;;;;;5035042;28;19938;-86
2023/07/31 06:22:31;;;;;;;;;;;16.30;99.90;;;;;;5046015;28;19913;-86
2023/07/31 06:24:57;;;;;;;;;;;16.30;99.90;;;;;;5032878;28;20383;-86
2023/07/31 06:27:23;;;;;;;;;;;16.40;99.90;;;;;;5045998;28;19986;-86
2023/07/31 06:29:49;;;;;;;;;;;16.40;99.90;;;;;;5038225;28;20597;-86
2023/07/31 06:32:14;;;;;;;;;;;16.40;99.90;;;;;;5045797;28;20250;-87
2023/07/31 06:34:40;;;;;;;;;;;16.40;99.90;;;;;;5046503;28;19905;-86
2023/07/31 06:37:06;;;;;;;;;;;16.40;99.90;;;;;;5032439;28;19908;-86
2023/07/31 06:39:31;;;;;;;;;;;16.50;99.90;;;;;;5046391;28;20359;-86
2023/07/31 06:41:57;;;;;;;;;;;16.40;99.90;;;;;;5050682;28;19920;-87
2023/07/31 06:44:22;;;;;;;;;;;16.30;99.90;;;;;;5045012;28;19917;-86
2023/07/31 06:46:48;;;;;;;;;;;16.30;99.90;;;;;;5044067;28;19915;-86
2023/07/31 06:49:15;;;;;;;;;;;16.40;99.90;;;;;;5051663;28;20370;-86
2023/07/31 06:51:40;;;;;;;;;;;16.40;99.90;;;;;;5061892;28;19909;-86
2023/07/31 06:54:08;;;;;;;;;;;16.40;99.90;;;;;;5050197;28;20014;-86
2023/07/31 06:56:34;;;;;;;;;;;16.50;99.90;;;;;;5047195;28;19923;-86
2023/07/31 06:59:00;;;;;;;;;;;16.70;99.90;;;;;;5048102;28;19958;-87
2023/07/31 07:01:25;;;;;;;;;;;16.90;99.90;;;;;;5046175;28;19908;-87
2023/07/31 07:03:51;;;;;;;;;;;16.90;99.90;;;;;;5033939;28;19909;-87
2023/07/31 07:06:17;;;;;;;;;;;16.80;99.90;;;;;;5043411;28;20548;-86
2023/07/31 07:08:43;;;;;;;;;;;16.70;99.90;;;;;;5034881;28;19913;-86
2023/07/31 07:11:09;;;;;;;;;;;16.70;99.90;;;;;;5051302;28;19965;-87
2023/07/31 07:13:34;;;;;;;;;;;16.80;99.90;;;;;;5037732;28;19920;-87
2023/07/31 07:16:00;;;;;;;;;;;16.90;99.90;;;;;;5039469;28;19948;-87
2023/07/31 07:18:25;;;;;;;;;;;16.90;99.90;;;;;;5054754;28;19943;-87
2023/07/31 07:20:52;;;;;;;;;;;17.10;99.90;;;;;;5054383;28;19911;-87
2023/07/31 07:23:18;;;;;;;;;;;17.30;99.90;;;;;;5037522;28;20355;-86
2023/07/31 07:25:45;;;;;;;;;;;17.30;99.90;;;;;;5036816;28;19932;-87
2023/07/31 07:28:10;;;;;;;;;;;17.20;99.90;;;;;;5036903;28;19912;-86
2023/07/31 07:30:36;;;;;;;;;;;17.40;99.90;;;;;;5054922;28;19908;-87
2023/07/31 07:33:02;;;;;;;;;;;17.70;99.90;;;;;;5037806;28;19995;-87
2023/07/31 07:35:27;;;;;;;;;;;17.70;99.90;;;;;;5054243;28;20280;-89
2023/07/31 07:37:53;;;;;;;;;;;17.60;99.90;;;;;;5080702;28;19909;-86
2023/07/31 07:40:19;;;;;;;;;;;17.60;99.90;;;;;;5052248;28;19916;-87
2023/07/31 07:42:45;;;;;;;;;;;17.70;99.90;;;;;;5045117;28;19920;-87
2023/07/31 07:45:11;;;;;;;;;;;17.60;99.90;;;;;;5054378;28;20016;-84
2023/07/31 07:47:37;;;;;;;;;;;17.70;99.90;;;;;;5030774;28;19915;-87
2023/07/31 07:50:03;;;;;;;;;;;17.70;99.90;;;;;;5051566;28;19921;-87
2023/07/31 07:52:29;;;;;;;;;;;17.70;99.90;;;;;;5050416;28;19916;-86
2023/07/31 07:54:55;;;;;;;;;;;18.10;99.90;;;;;;5037002;28;19916;-87
2023/07/31 07:57:21;;;;;;;;;;;18.30;99.90;;;;;;5032471;28;19912;-86
2023/07/31 07:59:50;;;;;;;;;;;18.50;99.90;;;;;;5044608;28;19917;-86
2023/07/31 08:02:16;;;;;;;;;;;18.70;99.90;;;;;;5035118;28;20038;-84
2023/07/31 08:04:42;;;;;;;;;;;18.90;99.90;;;;;;5036629;28;20004;-84
2023/07/31 08:07:07;;;;;;;;;;;18.90;99.90;;;;;;5037917;28;19915;-87
2023/07/31 08:09:33;;;;;;;;;;;19.00;99.90;;;;;;5037713;28;19916;-87
2023/07/31 08:12:02;;;;;;;;;;;19.10;99.90;;;;;;5038415;28;20256;-87
2023/07/31 08:14:27;;;;;;;;;;;19.00;99.90;;;;;;5040614;28;19916;-87
2023/07/31 08:16:53;;;;;;;;;;;19.20;99.90;;;;;;5072510;28;20372;-87
2023/07/31 08:19:18;;;;;;;;;;;19.10;99.90;;;;;;5054294;28;20672;-86
2023/07/31 08:21:44;;;;;;;;;;;18.80;99.90;;;;;;5037282;28;19986;-86
2023/07/31 08:24:10;;;;;;;;;;;18.60;99.90;;;;;;5060607;28;19983;-86
2023/07/31 08:30:04;;;;;;;;;;;18.80;99.90;;;;;;5049427;28;19924;-87
2023/07/31 08:32:55;;;;;;;;;;;18.70;99.90;;;;;;5070873;28;19908;-87
2023/07/31 08:35:21;;;;;;;;;;;18.50;99.90;;;;;;5080019;28;19909;-86
2023/07/31 08:37:46;;;;;;;;;;;18.40;99.90;;;;;;5036854;28;19905;-87
2023/07/31 08:40:13;;;;;;;;;;;18.30;99.90;;;;;;5036896;28;19920;-87
2023/07/31 08:42:45;;;;;;;;;;;18.40;99.90;;;;;;5037108;28;19991;-84
2023/07/31 08:45:14;;;;;;;;;;;18.70;99.90;;;;;;5053535;28;19921;-87
2023/07/31 08:47:40;;;;;;;;;;;19.30;99.90;;;;;;5033960;28;19939;-84
2023/07/31 08:50:06;;;;;;;;;;;19.40;99.90;;;;;;5070913;28;20302;-86
2023/07/31 08:52:32;;;;;;;;;;;19.50;99.90;;;;;;5053896;28;19969;-85
2023/07/31 08:58:33;;;;;;;;;;;19.90;99.90;;;;;;5052989;28;19909;-85
2023/07/31 09:01:01;;;;;;;;;;;19.70;99.90;;;;;;5037098;28;19909;-86
2023/07/31 09:03:26;;;;;;;;;;;19.50;99.90;;;;;;5037237;28;19913;-85
2023/07/31 09:05:53;;;;;;;;;;;19.50;99.90;;;;;;5036815;28;19909;-86
2023/07/31 09:08:20;;;;;;;;;;;20.00;99.90;;;;;;5036639;28;20310;-85
2023/07/31 09:10:46;;;;;;;;;;;20.50;99.90;;;;;;5036577;28;19970;-86
2023/07/31 09:13:14;;;;;;;;;;;20.90;99.90;;;;;;5052404;28;20356;-86
2023/07/31 09:15:42;;;;;;;;;;;21.80;99.90;;;;;;5035995;28;19908;-86
2023/07/31 09:18:08;;;;;;;;;;;22.30;99.90;;;;;;5052809;28;19912;-86
2023/07/31 09:20:34;;;;;;;;;;;22.60;99.90;;;;;;5036702;28;20363;-86
2023/07/31 09:23:05;;;;;;;;;;;23.00;99.90;;;;;;5037043;28;19919;-85
2023/07/31 09:25:30;;;;;;;;;;;22.80;99.90;;;;;;5062841;28;19999;-86
2023/07/31 09:28:00;;;;;;;;;;;22.60;99.90;;;;;;5035818;28;19940;-86
2023/07/31 09:30:26;;;;;;;;;;;22.90;99.90;;;;;;5052617;28;19958;-85
2023/07/31 09:32:59;;;;;;;;;;;22.30;99.90;;;;;;5035580;28;20585;-86
2023/07/31 09:36:00;;;;;;;;;;;22.40;99.90;;;;;;5063494;28;19920;-86
2023/07/31 09:38:26;;;;;;;;;;;22.20;99.90;;;;;;5063404;28;20374;-85
2023/07/31 09:40:51;;;;;;;;;;;22.00;99.90;;;;;;5064197;28;19920;-85
2023/07/31 09:43:19;;;;;;;;;;;22.10;99.90;;;;;;5032586;28;19920;-85
2023/07/31 09:45:45;;;;;;;;;;;21.50;99.90;;;;;;5044773;28;19913;-86
2023/07/31 09:48:12;;;;;;;;;;;21.10;99.90;;;;;;5063561;28;19909;-86
2023/07/31 09:50:39;;;;;;;;;;;21.90;99.90;;;;;;5052017;28;19909;-86
2023/07/31 09:53:05;;;;;;;;;;;22.70;99.90;;;;;;5044969;28;20380;-87
2023/07/31 09:55:31;;;;;;;;;;;23.30;99.90;;;;;;5051789;28;19920;-86
2023/07/31 09:57:57;;;;;;;;;;;23.00;99.90;;;;;;5048052;28;19949;-87
2023/07/31 10:00:25;;;;;;;;;;;22.60;99.90;;;;;;5037738;28;20005;-86
2023/07/31 10:02:50;;;;;;;;;;;22.50;99.90;;;;;;5031477;28;19944;-86
2023/07/31 10:05:16;;;;;;;;;;;22.40;99.90;;;;;;5045041;28;20002;-86
2023/07/31 10:07:53;;;;;;;;;;;22.70;99.90;;;;;;5031537;28;20337;-87
2023/07/31 10:10:20;;;;;;;;;;;23.40;99.90;;;;;;5048552;28;20280;-87
2023/07/31 10:12:46;;;;;;;;;;;23.40;99.90;;;;;;5051412;28;19915;-86
2023/07/31 10:15:12;;;;;;;;;;;22.60;99.90;;;;;;5035598;28;19911;-87
2023/07/31 10:17:38;;;;;;;;;;;21.90;99.90;;;;;;5035020;28;19908;-86
2023/07/31 10:20:04;;;;;;;;;;;21.50;99.90;;;;;;5052031;28;19922;-86
2023/07/31 10:22:30;;;;;;;;;;;21.50;99.90;;;;;;5035151;28;19912;-86
2023/07/31 10:24:57;;;;;;;;;;;21.60;99.90;;;;;;5050909;28;19974;-86
2023/07/31 10:27:23;;;;;;;;;;;21.70;99.90;;;;;;5051292;28;19999;-86
2023/07/31 10:30:20;;;;;;;;;;;21.70;99.90;;;;;;5035066;28;20016;-86
2023/07/31 10:32:46;;;;;;;;;;;21.80;99.90;;;;;;5051806;28;19919;-86
2023/07/31 10:35:12;;;;;;;;;;;21.20;99.90;;;;;;5051466;28;19908;-86
2023/07/31 10:37:38;;;;;;;;;;;21.20;99.90;;;;;;5035147;28;19916;-86
2023/07/31 10:40:05;;;;;;;;;;;21.40;99.90;;;;;;5051534;28;19920;-86
2023/07/31 10:42:32;;;;;;;;;;;21.50;99.90;;;;;;5034620;28;19935;-87
2023/07/31 10:45:10;;;;;;;;;;;21.70;99.90;;;;;;5051938;28;19908;-86
2023/07/31 10:47:37;;;;;;;;;;;21.80;99.90;;;;;;5037552;28;19916;-86
2023/07/31 10:50:14;;;;;;;;;;;21.40;99.90;;;;;;5055575;28;20265;-86
2023/07/31 10:52:39;;;;;;;;;;;21.00;99.90;;;;;;5039190;28;20311;-85
2023/07/31 10:55:15;;;;;;;;;;;21.20;99.90;;;;;;5039208;28;19904;-86
2023/07/31 10:57:44;;;;;;;;;;;21.30;99.90;;;;;;5048674;28;19960;-86
2023/07/31 11:00:22;;;;;;;;;;;21.00;99.90;;;;;;5038302;28;19995;-86
2023/07/31 11:03:00;;;;;;;;;;;20.90;99.90;;;;;;5038623;28;19913;-85
2023/07/31 11:05:45;;;;;;;;;;;20.80;99.90;;;;;;5038537;28;19919;-86
2023/07/31 11:08:14;;;;;;;;;;;20.90;99.90;;;;;;5038344;28;19913;-86
2023/07/31 11:10:40;;;;;;;;;;;20.90;99.90;;;;;;5036140;28;19904;-85
2023/07/31 11:13:06;;;;;;;;;;;21.10;99.90;;;;;;5055536;28;19959;-86
2023/07/31 11:15:31;;;;;;;;;;;21.30;99.90;;;;;;5038041;28;20364;-86
2023/07/31 11:18:00;;;;;;;;;;;21.40;99.90;;;;;;5038701;28;19909;-86
2023/07/31 11:20:25;;;;;;;;;;;22.10;99.90;;;;;;5055012;28;19908;-87
2023/07/31 11:22:51;;;;;;;;;;;22.00;99.90;;;;;;5055102;28;19946;-86
2023/07/31 11:25:17;;;;;;;;;;;21.40;99.90;;;;;;5035461;28;19912;-86
2023/07/31 11:27:43;;;;;;;;;;;21.40;99.90;;;;;;5071777;28;19904;-86
2023/07/31 11:30:09;;;;;;;;;;;21.60;99.90;;;;;;5048074;28;19909;-86
2023/07/31 11:32:38;;;;;;;;;;;21.70;99.90;;;;;;5037954;28;19950;-85
2023/07/31 11:35:05;;;;;;;;;;;21.80;99.90;;;;;;5084202;28;19917;-84
2023/07/31 11:37:41;;;;;;;;;;;21.80;99.90;;;;;;5053937;28;20420;-88
2023/07/31 11:40:07;;;;;;;;;;;22.00;99.90;;;;;;5035761;28;19913;-87
2023/07/31 11:42:33;;;;;;;;;;;23.00;99.90;;;;;;5053858;28;19919;-87
2023/07/31 11:45:01;;;;;;;;;;;22.90;99.90;;;;;;5054578;28;19908;-87
2023/07/31 11:47:27;;;;;;;;;;;22.80;99.90;;;;;;5030369;28;19927;-88
2023/07/31 11:49:53;;;;;;;;;;;22.90;99.90;;;;;;5047147;28;19908;-85
2023/07/31 11:52:20;;;;;;;;;;;22.70;99.90;;;;;;5049296;28;20007;-89
2023/07/31 11:57:54;;;;;;;;;;;23.60;99.90;;;;;;5046785;28;19950;-88
2023/07/31 12:00:20;;;;;;;;;;;23.60;99.90;;;;;;5051019;28;20015;-86
2023/07/31 12:02:53;;;;;;;;;;;22.90;99.90;;;;;;5035649;28;20539;-85
2023/07/31 12:05:19;;;;;;;;;;;22.20;99.90;;;;;;5044512;28;20039;-85
2023/07/31 12:07:45;;;;;;;;;;;22.40;99.90;;;;;;5034253;28;20003;-84
2023/07/31 12:10:11;;;;;;;;;;;21.60;99.90;;;;;;5044051;28;19909;-84
2023/07/31 12:12:37;;;;;;;;;;;21.30;99.90;;;;;;5053421;28;20015;-87
2023/07/31 12:15:02;;;;;;;;;;;21.20;99.90;;;;;;5045797;28;20050;-87
2023/07/31 12:17:28;;;;;;;;;;;21.20;99.90;;;;;;5053177;28;19913;-85
2023/07/31 12:19:54;;;;;;;;;;;21.40;99.90;;;;;;5049846;28;19940;-85
2023/07/31 12:22:21;;;;;;;;;;;21.30;99.90;;;;;;5045152;28;19924;-84
2023/07/31 12:24:46;;;;;;;;;;;21.10;99.90;;;;;;5035831;28;19908;-85
2023/07/31 12:27:12;;;;;;;;;;;21.20;99.90;;;;;;5047020;28;19915;-85
2023/07/31 12:29:39;;;;;;;;;;;21.40;99.90;;;;;;5060136;28;19955;-85
2023/07/31 12:32:17;;;;;;;;;;;21.40;99.90;;;;;;5044504;28;19909;-85
2023/07/31 12:34:43;;;;;;;;;;;21.40;99.90;;;;;;5053220;28;19909;-86
2023/07/31 12:37:09;;;;;;;;;;;21.60;99.90;;;;;;5036590;28;19909;-86
2023/07/31 12:39:34;;;;;;;;;;;22.10;99.90;;;;;;5046121;28;19909;-86
2023/07/31 12:42:00;;;;;;;;;;;22.30;99.90;;;;;;5033532;28;20371;-86
2023/07/31 12:44:25;;;;;;;;;;;22.30;99.90;;;;;;5045565;28;19912;-85
2023/07/31 12:46:51;;;;;;;;;;;22.20;99.90;;;;;;5036464;28;19909;-86
2023/07/31 12:49:16;;;;;;;;;;;22.90;99.90;;;;;;5052543;28;19908;-86
2023/07/31 12:51:42;;;;;;;;;;;23.50;99.90;;;;;;5036118;28;20657;-87
2023/07/31 12:54:08;;;;;;;;;;;24.00;99.90;;;;;;5029244;28;19913;-86
2023/07/31 12:56:33;;;;;;;;;;;24.80;99.90;;;;;;5044599;28;19987;-87
2023/07/31 12:58:59;;;;;;;;;;;25.10;99.90;;;;;;5050127;28;19915;-86
2023/07/31 13:01:25;;;;;;;;;;;24.20;99.90;;;;;;5044505;28;19909;-87
2023/07/31 13:03:50;;;;;;;;;;;24.10;99.90;;;;;;5052358;28;19909;-87
2023/07/31 13:06:18;;;;;;;;;;;24.40;99.90;;;;;;5035945;28;20283;-86
2023/07/31 13:08:43;;;;;;;;;;;23.90;99.90;;;;;;5035316;28;19912;-86
2023/07/31 13:11:12;;;;;;;;;;;23.40;99.90;;;;;;5048918;28;19917;-86
2023/07/31 13:13:38;;;;;;;;;;;23.00;99.90;;;;;;5051600;28;19908;-86
2023/07/31 13:16:03;;;;;;;;;;;22.90;99.90;;;;;;5035557;28;19982;-86
2023/07/31 13:18:29;;;;;;;;;;;23.00;99.90;;;;;;5044813;28;19909;-86
2023/07/31 13:20:54;;;;;;;;;;;23.00;99.90;;;;;;5063809;28;20510;-86
2023/07/31 13:23:20;;;;;;;;;;;23.10;99.90;;;;;;5041536;28;19916;-86
2023/07/31 13:25:46;;;;;;;;;;;23.30;99.90;;;;;;5033929;28;19912;-87
2023/07/31 13:28:11;;;;;;;;;;;23.30;99.90;;;;;;5032592;28;19991;-86
2023/07/31 13:30:37;;;;;;;;;;;22.90;99.90;;;;;;5050945;28;19909;-87
2023/07/31 13:33:03;;;;;;;;;;;22.60;99.90;;;;;;5035601;28;19909;-87
2023/07/31 13:35:31;;;;;;;;;;;22.00;99.90;;;;;;5052452;28;19905;-86
2023/07/31 13:37:56;;;;;;;;;;;21.60;99.90;;;;;;5035453;28;20348;-86
2023/07/31 13:40:22;;;;;;;;;;;21.30;99.90;;;;;;5032996;28;19923;-86
2023/07/31 13:42:48;;;;;;;;;;;21.20;99.90;;;;;;5051580;28;19912;-85
2023/07/31 13:45:14;;;;;;;;;;;21.40;99.90;;;;;;5049056;28;19917;-86
2023/07/31 13:47:39;;;;;;;;;;;21.60;99.90;;;;;;5079973;28;19919;-87
2023/07/31 13:50:05;;;;;;;;;;;21.80;99.90;;;;;;5049858;28;19913;-87
2023/07/31 13:52:31;;;;;;;;;;;22.00;99.90;;;;;;5052379;28;19908;-87
2023/07/31 13:54:56;;;;;;;;;;;22.70;99.90;;;;;;5031632;28;20320;-87
2023/07/31 13:57:31;;;;;;;;;;;23.40;99.90;;;;;;5048261;28;20007;-85
2023/07/31 13:59:57;;;;;;;;;;;23.50;99.90;;;;;;5051828;28;19912;-87
2023/07/31 14:02:22;;;;;;;;;;;23.20;99.90;;;;;;5049756;28;20371;-87
2023/07/31 14:04:48;;;;;;;;;;;22.70;99.90;;;;;;5049119;28;20572;-87
2023/07/31 14:07:13;;;;;;;;;;;21.60;99.90;;;;;;5046137;28;20649;-88
2023/07/31 14:09:39;;;;;;;;;;;21.30;99.90;;;;;;5050050;28;19955;-87
2023/07/31 14:12:05;;;;;;;;;;;21.30;99.90;;;;;;5046353;28;19911;-87
2023/07/31 14:14:30;;;;;;;;;;;21.20;99.90;;;;;;5031612;28;19908;-87
2023/07/31 14:16:56;;;;;;;;;;;21.10;99.90;;;;;;5034727;28;19916;-87
2023/07/31 14:19:22;;;;;;;;;;;20.70;99.90;;;;;;5034445;28;19999;-87
2023/07/31 14:21:47;;;;;;;;;;;20.60;99.90;;;;;;5032236;28;19958;-87
2023/07/31 14:24:13;;;;;;;;;;;20.60;99.90;;;;;;5044530;28;20298;-87
2023/07/31 14:26:38;;;;;;;;;;;20.50;99.90;;;;;;5028908;28;19916;-86
2023/07/31 14:29:04;;;;;;;;;;;20.50;99.90;;;;;;5044024;28;20011;-86
2023/07/31 14:31:29;;;;;;;;;;;20.50;99.90;;;;;;5049410;28;19968;-87
2023/07/31 14:33:55;;;;;;;;;;;20.30;99.90;;;;;;5051819;28;19930;-86